createdAt,value
2019-01-04T00:00:43.874Z,15.90
2019-01-04T00:03:13.156Z,14.20
2019-01-04T00:05:42.560Z,19.30
2019-01-04T00:08:11.842Z,15.73
2019-01-04T00:10:41.074Z,14.00
2019-01-04T00:13:10.302Z,14.40
2019-01-04T00:15:39.601Z,15.60
2019-01-04T00:18:08.930Z,13.27
2019-01-04T00:20:38.160Z,13.90
2019-01-04T00:23:07.439Z,14.17
2019-01-04T00:25:36.660Z,15.63
2019-01-04T00:28:05.898Z,12.47
2019-01-04T00:30:35.152Z,14.67
2019-01-04T00:33:04.374Z,11.97
2019-01-04T00:35:33.634Z,13.93
2019-01-04T00:38:03.002Z,13.60
2019-01-04T00:40:32.235Z,13.30
2019-01-04T00:43:01.473Z,15.00
2019-01-04T00:45:30.747Z,13.23
2019-01-04T00:48:00.026Z,16.00
2019-01-04T00:50:29.255Z,15.00
2019-01-04T00:52:58.537Z,12.37
2019-01-04T00:56:00.455Z,11.87
2019-01-04T00:59:18.369Z,11.87
2019-01-04T01:02:21.455Z,13.40
2019-01-04T01:05:44.585Z,12.20
2019-01-04T01:09:06.029Z,11.87
2019-01-04T01:12:14.916Z,13.17
2019-01-04T01:15:33.477Z,13.00
2019-01-04T01:18:46.917Z,15.43
2019-01-04T01:22:00.670Z,13.47
2019-01-04T01:25:08.848Z,13.33
2019-01-04T01:28:13.806Z,14.87
2019-01-04T01:31:12.396Z,14.03
2019-01-04T01:34:12.945Z,14.30
2019-01-04T01:37:21.636Z,13.10
2019-01-04T01:40:40.095Z,14.50
2019-01-04T01:43:41.105Z,15.07
2019-01-04T01:46:34.591Z,15.00
2019-01-04T01:50:09.138Z,14.60
2019-01-04T01:52:44.768Z,13.20
2019-01-04T01:55:14.035Z,17.27
2019-01-04T01:57:43.397Z,15.23
2019-01-04T02:00:12.871Z,15.67
2019-01-04T02:02:42.323Z,15.10
2019-01-04T02:05:11.573Z,15.80
2019-01-04T02:07:40.883Z,15.40
2019-01-04T02:10:10.457Z,15.83
2019-01-04T02:12:39.709Z,14.37
2019-01-04T02:15:09.298Z,13.97
2019-01-04T02:17:38.660Z,15.10
2019-01-04T02:20:08.302Z,15.00
2019-01-04T02:22:37.540Z,14.93
2019-01-04T02:25:07.163Z,15.13
2019-01-04T02:27:36.414Z,14.57
2019-01-04T02:30:07.290Z,15.07
2019-01-04T02:32:36.626Z,14.40
2019-01-04T02:35:05.918Z,15.07
2019-01-04T02:37:35.162Z,13.57
2019-01-04T02:40:04.649Z,14.67
2019-01-04T02:42:33.983Z,13.67
2019-01-04T02:45:03.194Z,14.57
2019-01-04T02:47:32.465Z,14.07
2019-01-04T02:50:01.716Z,13.10
2019-01-04T02:52:31.060Z,14.43
2019-01-04T02:55:00.301Z,13.17
2019-01-04T02:57:29.531Z,12.23
2019-01-04T02:59:58.758Z,12.27
2019-01-04T03:02:28.112Z,12.57
2019-01-04T03:04:57.330Z,11.20
2019-01-04T03:07:26.547Z,10.43
2019-01-04T03:09:55.922Z,13.00
2019-01-04T03:12:25.163Z,12.30
2019-01-04T03:14:54.394Z,12.40
2019-01-04T03:17:23.847Z,13.10
2019-01-04T03:19:53.830Z,12.60
2019-01-04T03:22:23.126Z,13.07
2019-01-04T03:24:52.382Z,12.83
2019-01-04T03:27:21.624Z,13.80
2019-01-04T03:29:50.917Z,12.53
2019-01-04T03:32:20.227Z,13.40
2019-01-04T03:34:49.528Z,13.57
2019-01-04T03:37:18.754Z,14.17
2019-01-04T03:39:48.002Z,12.87
2019-01-04T03:42:17.254Z,12.00
2019-01-04T03:44:46.477Z,11.80
2019-01-04T03:47:15.879Z,11.67
2019-01-04T03:49:45.118Z,12.43
2019-01-04T03:52:14.354Z,12.07
2019-01-04T03:54:43.653Z,11.87
2019-01-04T03:57:12.969Z,11.67
2019-01-04T03:59:42.173Z,11.40
2019-01-04T04:02:11.427Z,11.93
2019-01-04T04:04:40.664Z,11.53
2019-01-04T04:07:09.879Z,11.63
2019-01-04T04:09:39.152Z,12.23
2019-01-04T04:12:08.374Z,12.90
2019-01-04T04:14:37.611Z,11.63
2019-01-04T04:17:06.862Z,11.87
2019-01-04T04:19:36.078Z,11.47
2019-01-04T04:22:05.309Z,11.57
2019-01-04T04:24:34.551Z,10.30
2019-01-04T04:27:03.774Z,11.23
2019-01-04T04:29:32.998Z,10.63
2019-01-04T04:32:02.340Z,10.90
2019-01-04T04:34:31.582Z,10.60
2019-01-04T04:37:00.922Z,11.13
2019-01-04T04:39:30.166Z,11.20
2019-01-04T04:41:59.475Z,10.60
2019-01-04T04:44:28.711Z,11.17
2019-01-04T04:46:57.995Z,15.47
2019-01-04T04:49:27.217Z,11.43
2019-01-04T04:51:56.450Z,9.80
2019-01-04T04:54:25.750Z,8.80
2019-01-04T04:56:55.008Z,10.43
2019-01-04T04:59:24.248Z,10.40
2019-01-04T05:01:53.506Z,9.50
2019-01-04T05:04:25.060Z,9.43
2019-01-04T05:06:54.272Z,9.13
2019-01-04T05:09:23.575Z,8.80
2019-01-04T05:11:52.883Z,9.17
2019-01-04T05:14:22.162Z,9.67
2019-01-04T05:16:51.419Z,8.63
2019-01-04T05:19:20.714Z,8.97
2019-01-04T05:21:49.908Z,9.50
2019-01-04T05:24:19.214Z,8.70
2019-01-04T05:26:48.546Z,9.10
2019-01-04T05:29:17.811Z,9.23
2019-01-04T05:31:47.079Z,9.23
2019-01-04T05:34:16.402Z,8.33
2019-01-04T05:36:45.663Z,8.20
2019-01-04T05:39:14.917Z,8.50
2019-01-04T05:41:44.225Z,8.47
2019-01-04T05:44:13.465Z,7.07
2019-01-04T05:46:42.785Z,7.90
2019-01-04T05:49:12.086Z,9.00
2019-01-04T05:51:41.302Z,7.63
2019-01-04T05:54:10.626Z,7.67
2019-01-04T05:56:39.871Z,6.90
2019-01-04T05:59:09.196Z,7.63
2019-01-04T06:01:38.478Z,7.93
2019-01-04T06:04:07.693Z,7.63
2019-01-04T06:06:36.902Z,8.07
2019-01-04T06:09:09.007Z,7.97
2019-01-04T06:11:38.233Z,9.10
2019-01-04T06:14:07.473Z,13.20
2019-01-04T06:16:36.728Z,17.80
2019-01-04T06:19:05.970Z,19.70
2019-01-04T06:21:35.278Z,19.13
2019-01-04T06:24:04.603Z,27.10
2019-01-04T06:26:33.849Z,19.43
2019-01-04T06:29:03.075Z,16.07
2019-01-04T06:31:32.349Z,9.40
2019-01-04T06:34:01.666Z,8.33
2019-01-04T06:36:30.968Z,8.53
2019-01-04T06:39:00.445Z,8.17
2019-01-04T06:41:29.674Z,8.63
2019-01-04T06:43:59.014Z,9.00
2019-01-04T06:46:28.308Z,9.40
2019-01-04T06:48:57.548Z,8.97
2019-01-04T06:51:27.864Z,8.80
2019-01-04T06:53:57.429Z,9.97
2019-01-04T06:56:27.807Z,9.27
2019-01-04T06:58:57.091Z,11.87
2019-01-04T07:01:26.379Z,10.77
2019-01-04T07:03:55.635Z,10.03
2019-01-04T07:06:24.890Z,10.00
2019-01-04T07:08:54.167Z,13.50
2019-01-04T07:11:23.436Z,15.43
2019-01-04T07:13:52.686Z,11.03
2019-01-04T07:16:21.994Z,10.80
2019-01-04T07:18:52.382Z,10.77
2019-01-04T07:21:21.703Z,12.70
2019-01-04T07:23:51.066Z,11.97
2019-01-04T07:26:20.376Z,13.23
2019-01-04T07:28:49.602Z,13.43
2019-01-04T07:31:18.899Z,12.40
2019-01-04T07:33:48.162Z,11.23
2019-01-04T07:36:17.395Z,12.63
2019-01-04T07:38:46.798Z,12.17
2019-01-04T07:41:16.071Z,13.97
2019-01-04T07:43:45.323Z,14.90
2019-01-04T07:46:14.634Z,13.40
2019-01-04T07:48:43.887Z,13.68
2019-01-04T07:51:13.130Z,12.90
2019-01-04T07:53:42.378Z,12.97
2019-01-04T07:56:11.604Z,12.10
2019-01-04T07:58:40.906Z,13.73
2019-01-04T08:01:10.169Z,12.83
2019-01-04T08:03:39.397Z,14.20
2019-01-04T08:06:08.690Z,12.40
2019-01-04T08:08:38.000Z,11.33
2019-01-04T08:11:07.231Z,12.10
2019-01-04T08:13:36.443Z,13.07
2019-01-04T08:16:05.779Z,12.80
2019-01-04T08:18:35.021Z,12.93
2019-01-04T08:21:04.245Z,12.97
2019-01-04T08:23:33.538Z,11.47
2019-01-04T08:26:02.753Z,13.23
2019-01-04T08:28:31.978Z,13.50
2019-01-04T08:31:01.359Z,13.37
2019-01-04T08:33:30.654Z,13.23
2019-01-04T08:35:59.872Z,14.03
2019-01-04T08:38:29.124Z,15.87
2019-01-04T08:40:58.335Z,17.50
2019-01-04T08:43:27.652Z,16.53
2019-01-04T08:45:56.953Z,19.27
2019-01-04T08:48:26.181Z,23.33
2019-01-04T08:50:55.414Z,17.53
2019-01-04T08:53:55.458Z,26.07
2019-01-04T08:56:25.576Z,16.73
2019-01-04T08:58:54.806Z,14.60
2019-01-04T09:01:24.116Z,16.00
2019-01-04T09:03:53.368Z,16.00
2019-01-04T09:06:22.617Z,17.57
2019-01-04T09:08:51.896Z,14.33
2019-01-04T09:11:21.105Z,20.93
2019-01-04T09:13:50.346Z,22.90
2019-01-04T09:16:20.768Z,20.90
2019-01-04T09:18:50.034Z,27.23
2019-01-04T09:21:19.259Z,24.00
2019-01-04T09:23:48.735Z,23.23
2019-01-04T09:26:18.189Z,17.40
2019-01-04T09:28:47.484Z,19.67
2019-01-04T09:31:16.815Z,17.20
2019-01-04T09:33:46.087Z,20.77
2019-01-04T09:36:15.403Z,25.43
2019-01-04T09:38:50.779Z,13.83
2019-01-04T09:41:40.161Z,14.60
2019-01-04T09:44:09.470Z,16.43
2019-01-04T09:46:38.783Z,17.60
2019-01-04T09:49:08.092Z,18.50
2019-01-04T09:51:37.341Z,13.90
2019-01-04T09:54:06.560Z,22.13
2019-01-04T09:56:35.799Z,14.17
2019-01-04T09:59:05.367Z,22.07
2019-01-04T10:01:34.613Z,20.13
2019-01-04T10:04:03.931Z,24.83
2019-01-04T10:06:33.199Z,33.03
2019-01-04T10:09:02.498Z,12.63
2019-01-04T10:11:31.716Z,38.97
2019-01-04T10:14:01.030Z,27.30
2019-01-04T10:16:49.318Z,25.87
2019-01-04T10:19:18.580Z,19.10
2019-01-04T10:21:47.936Z,16.50
2019-01-04T10:24:17.161Z,16.33
2019-01-04T10:26:46.422Z,25.33
2019-01-04T10:29:15.726Z,37.17
2019-01-04T10:31:44.958Z,14.50
2019-01-04T10:34:14.262Z,14.67
2019-01-04T10:36:43.511Z,15.33
2019-01-04T10:39:12.770Z,13.67
2019-01-04T10:41:42.080Z,14.33
2019-01-04T10:44:11.337Z,16.50
2019-01-04T10:46:40.736Z,13.70
2019-01-04T10:49:10.128Z,25.77
2019-01-04T10:51:39.356Z,21.23
2019-01-04T10:54:08.654Z,26.53
2019-01-04T10:56:38.028Z,21.70
2019-01-04T10:59:07.312Z,22.13
2019-01-04T11:01:36.607Z,16.07
2019-01-04T11:04:05.918Z,18.63
2019-01-04T11:06:35.128Z,19.50
2019-01-04T11:09:06.891Z,17.03
2019-01-04T11:11:36.262Z,22.63
2019-01-04T11:14:05.517Z,20.57
2019-01-04T11:16:34.773Z,21.43
2019-01-04T11:19:04.077Z,18.03
2019-01-04T11:21:33.332Z,15.80
2019-01-04T11:24:38.507Z,14.17
2019-01-04T11:27:10.406Z,13.90
2019-01-04T11:30:03.510Z,18.50
2019-01-04T11:33:02.520Z,13.93
2019-01-04T11:36:10.118Z,11.63
2019-01-04T11:39:29.334Z,13.10
2019-01-04T11:42:45.015Z,14.80
2019-01-04T11:45:37.993Z,16.43
2019-01-04T11:48:50.725Z,14.43
2019-01-04T11:51:48.063Z,16.37
2019-01-04T11:54:21.103Z,17.80
2019-01-04T11:56:50.397Z,20.90
2019-01-04T11:59:19.696Z,19.10
2019-01-04T12:01:48.961Z,21.40
2019-01-04T12:04:18.223Z,13.27
2019-01-04T12:06:47.545Z,14.53
2019-01-04T12:09:16.843Z,19.93
2019-01-04T12:11:46.118Z,19.87
2019-01-04T12:14:15.426Z,21.27
2019-01-04T12:16:44.688Z,21.97
2019-01-04T12:19:14.158Z,14.90
2019-01-04T12:21:43.479Z,12.57
2019-01-04T12:24:12.864Z,15.47
2019-01-04T12:26:42.182Z,18.33
2019-01-04T12:29:11.411Z,15.77
2019-01-04T12:31:40.762Z,12.50
2019-01-04T12:34:09.978Z,9.97
2019-01-04T12:36:39.225Z,8.67
2019-01-04T12:39:08.894Z,13.60
2019-01-04T12:41:38.196Z,8.90
2019-01-04T12:44:07.494Z,7.67
2019-01-04T12:46:36.954Z,7.83
2019-01-04T12:49:06.262Z,7.43
2019-01-04T12:51:35.481Z,7.77
2019-01-04T12:54:10.304Z,9.85
2019-01-04T12:56:39.601Z,9.00
2019-01-04T12:59:08.830Z,7.97
2019-01-04T13:01:39.548Z,7.93
2019-01-04T13:04:09.055Z,7.63
2019-01-04T13:06:38.349Z,13.00
2019-01-04T13:09:07.844Z,12.13
2019-01-04T13:11:37.103Z,11.60
2019-01-04T13:14:06.338Z,9.90
2019-01-04T13:16:35.751Z,11.27
2019-01-04T13:19:05.019Z,10.33
2019-01-04T13:21:36.584Z,9.33
2019-01-04T13:24:06.040Z,7.67
2019-01-04T13:26:37.035Z,7.13
2019-01-04T13:29:06.253Z,8.10
2019-01-04T13:31:35.721Z,7.73
2019-01-04T13:34:04.961Z,9.37
2019-01-04T13:36:34.294Z,15.10
2019-01-04T13:39:07.150Z,13.03
2019-01-04T13:41:39.505Z,8.23
2019-01-04T13:44:08.755Z,8.93
2019-01-04T13:46:40.691Z,7.77
2019-01-04T13:49:10.003Z,6.53
2019-01-04T13:51:39.330Z,7.20
2019-01-04T13:54:08.598Z,7.23
2019-01-04T13:56:38.559Z,7.47
2019-01-04T13:59:08.018Z,6.33
2019-01-04T14:01:37.407Z,7.00
2019-01-04T14:04:06.619Z,11.30
2019-01-04T14:06:35.982Z,6.43
2019-01-04T14:09:10.569Z,6.37
2019-01-04T14:11:39.879Z,7.77
2019-01-04T14:14:09.134Z,7.23
2019-01-04T14:16:38.460Z,6.13
2019-01-04T14:19:08.025Z,7.67
2019-01-04T14:21:37.269Z,7.20
2019-01-04T14:24:06.896Z,9.63
2019-01-04T14:26:36.210Z,8.97
2019-01-04T14:29:05.575Z,7.47
2019-01-04T14:31:34.910Z,11.37
2019-01-04T14:34:04.179Z,7.47
2019-01-04T14:36:33.393Z,6.10
2019-01-04T14:39:02.808Z,7.83
2019-01-04T14:41:32.042Z,7.57
2019-01-04T14:44:02.912Z,9.37
2019-01-04T14:46:32.151Z,9.08
2019-01-04T14:49:01.451Z,7.80
2019-01-04T14:51:30.809Z,7.93
2019-01-04T14:54:00.277Z,7.67
2019-01-04T14:56:29.557Z,6.10
2019-01-04T14:59:02.038Z,5.70
2019-01-04T15:01:31.385Z,7.70
2019-01-04T15:04:00.602Z,7.93
2019-01-04T15:06:29.833Z,7.53
2019-01-04T15:08:59.213Z,7.20
2019-01-04T15:11:28.473Z,6.83
2019-01-04T15:13:57.730Z,6.73
2019-01-04T15:16:27.117Z,7.73
2019-01-04T15:18:56.343Z,7.17
2019-01-04T15:21:25.579Z,7.13
2019-01-04T15:23:54.942Z,6.77
2019-01-04T15:26:24.220Z,10.80
2019-01-04T15:28:53.421Z,9.37
2019-01-04T15:31:22.835Z,8.43
2019-01-04T15:33:52.201Z,11.57
2019-01-04T15:36:21.521Z,11.17
2019-01-04T15:38:50.959Z,8.93
2019-01-04T15:41:20.173Z,9.53
2019-01-04T15:43:49.424Z,9.57
2019-01-04T15:46:18.699Z,12.43
2019-01-04T15:48:48.052Z,8.43
2019-01-04T15:51:17.341Z,8.13
2019-01-04T15:53:46.678Z,7.73
2019-01-04T15:56:19.027Z,9.07
2019-01-04T15:58:48.301Z,10.90
2019-01-04T16:01:17.610Z,8.80
2019-01-04T16:03:46.889Z,8.60
2019-01-04T16:06:16.202Z,9.87
2019-01-04T16:08:45.540Z,10.73
2019-01-04T16:11:14.882Z,10.40
2019-01-04T16:13:44.127Z,16.53
2019-01-04T16:16:13.407Z,12.87
2019-01-04T16:18:42.623Z,11.57
2019-01-04T16:21:11.872Z,10.30
2019-01-04T16:23:41.138Z,7.83
2019-01-04T16:26:10.389Z,7.43
2019-01-04T16:28:39.829Z,8.90
2019-01-04T16:31:09.176Z,8.60
2019-01-04T16:33:38.446Z,8.87
2019-01-04T16:36:07.680Z,9.10
2019-01-04T16:38:36.926Z,11.83
2019-01-04T16:41:06.134Z,9.10
2019-01-04T16:43:35.356Z,6.50
2019-01-04T16:46:05.526Z,5.93
2019-01-04T16:48:34.826Z,6.13
2019-01-04T16:51:23.274Z,5.07
2019-01-04T16:53:52.492Z,4.70
2019-01-04T16:56:21.803Z,4.30
2019-01-04T16:58:51.070Z,4.63
2019-01-04T17:01:20.385Z,4.37
2019-01-04T17:03:49.669Z,4.57
2019-01-04T17:06:18.949Z,4.97
2019-01-04T17:08:48.313Z,4.43
2019-01-04T17:11:18.833Z,4.03
2019-01-04T17:13:48.180Z,5.20
2019-01-04T17:16:17.422Z,4.73
2019-01-04T17:18:46.670Z,3.60
2019-01-04T17:21:16.010Z,4.60
2019-01-04T17:23:45.275Z,4.63
2019-01-04T17:26:14.559Z,5.10
2019-01-04T17:28:43.805Z,4.60
2019-01-04T17:31:13.028Z,4.53
2019-01-04T17:33:42.381Z,5.27
2019-01-04T17:36:11.713Z,5.10
2019-01-04T17:38:44.350Z,5.07
2019-01-04T17:41:13.697Z,6.27
2019-01-04T17:43:43.022Z,8.53
2019-01-04T17:46:12.281Z,7.30
2019-01-04T17:48:44.683Z,7.50
2019-01-04T17:51:13.998Z,7.33
2019-01-04T17:53:43.330Z,8.17
2019-01-04T17:56:12.578Z,6.07
2019-01-04T17:58:41.905Z,4.10
2019-01-04T18:01:11.282Z,7.10
2019-01-04T18:03:40.516Z,6.13
2019-01-04T18:06:09.795Z,6.90
2019-01-04T18:08:39.113Z,6.57
2019-01-04T18:11:08.461Z,6.50
2019-01-04T18:13:37.809Z,6.40
2019-01-04T18:16:07.103Z,7.20
2019-01-04T18:18:36.467Z,6.80
2019-01-04T18:21:05.760Z,7.73
2019-01-04T18:23:34.987Z,6.70
2019-01-04T18:26:04.244Z,6.00
2019-01-04T18:28:33.550Z,6.77
2019-01-04T18:31:02.890Z,6.07
2019-01-04T18:33:32.279Z,6.40
2019-01-04T18:36:01.586Z,7.87
2019-01-04T18:38:30.937Z,6.90
2019-01-04T18:41:00.149Z,6.07
2019-01-04T18:43:29.479Z,7.17
2019-01-04T18:45:58.698Z,7.27
2019-01-04T18:48:27.943Z,7.83
2019-01-04T18:50:57.414Z,9.50
2019-01-04T18:53:26.692Z,8.07
2019-01-04T18:55:55.938Z,8.50
2019-01-04T18:58:25.198Z,8.73
2019-01-04T19:00:54.447Z,10.50
2019-01-04T19:03:23.769Z,8.17
2019-01-04T19:05:53.103Z,8.20
2019-01-04T19:08:22.341Z,8.17
2019-01-04T19:10:51.633Z,13.50
2019-01-04T19:13:26.657Z,8.50
2019-01-04T19:15:51.898Z,8.40
2019-01-04T19:18:21.178Z,8.97
2019-01-04T19:20:50.532Z,7.20
2019-01-04T19:23:19.786Z,7.90
2019-01-04T19:25:49.101Z,8.57
2019-01-04T19:28:21.616Z,9.50
2019-01-04T19:30:50.871Z,9.40
2019-01-04T19:33:20.211Z,8.27
2019-01-04T19:35:49.618Z,9.40
2019-01-04T19:38:20.966Z,7.93
2019-01-04T19:40:50.249Z,8.30
2019-01-04T19:43:19.687Z,10.07
2019-01-04T19:45:48.915Z,8.53
2019-01-04T19:48:18.327Z,9.73
2019-01-04T19:50:47.673Z,7.87
2019-01-04T19:53:16.902Z,8.20
2019-01-04T19:55:46.349Z,9.10
2019-01-04T19:58:15.721Z,11.80
2019-01-04T20:00:45.036Z,9.53
2019-01-04T20:03:14.280Z,10.77
2019-01-04T20:06:41.204Z,10.70
2019-01-04T20:10:24.647Z,12.70
2019-01-04T20:14:01.114Z,9.87
2019-01-04T20:17:00.939Z,13.33
2019-01-04T20:19:58.345Z,11.47
2019-01-04T20:23:04.721Z,10.80
2019-01-04T20:25:53.064Z,10.50
2019-01-04T20:28:40.235Z,9.67
2019-01-04T20:31:28.541Z,9.07
2019-01-04T20:34:19.885Z,9.17
2019-01-04T20:37:07.094Z,9.20
2019-01-04T20:40:04.459Z,7.87
2019-01-04T20:42:51.817Z,7.67
2019-01-04T20:45:46.309Z,7.43
2019-01-04T20:48:33.324Z,7.07
2019-01-04T20:51:13.678Z,7.47
2019-01-04T20:54:04.791Z,8.07
2019-01-04T20:56:59.214Z,7.43
2019-01-04T20:59:47.618Z,9.87
2019-01-04T21:02:38.940Z,7.73
2019-01-04T21:05:26.467Z,7.00
2019-01-04T21:08:13.770Z,4.90
2019-01-04T21:11:20.289Z,7.50
2019-01-04T21:14:08.546Z,8.10
2019-01-04T21:17:00.333Z,6.93
2019-01-04T21:20:00.238Z,6.27
2019-01-04T21:22:51.563Z,5.93
2019-01-04T21:25:39.821Z,6.13
2019-01-04T21:28:43.490Z,6.00
2019-01-04T21:31:47.051Z,5.10
2019-01-04T21:34:35.346Z,5.43
2019-01-04T21:37:18.011Z,5.53
2019-01-04T21:40:15.506Z,8.77
2019-01-04T21:43:15.975Z,5.70
2019-01-04T21:46:14.988Z,32.17
2019-01-04T21:49:06.139Z,24.27
2019-01-04T21:51:54.460Z,21.50
2019-01-04T21:54:54.850Z,31.13
2019-01-04T21:57:49.134Z,17.90
2019-01-04T22:00:46.522Z,11.37
2019-01-04T22:03:50.107Z,11.03
2019-01-04T22:06:53.516Z,9.27
2019-01-04T22:09:40.699Z,8.17
2019-01-04T22:12:20.787Z,8.73
2019-01-04T22:15:07.754Z,10.10
2019-01-04T22:18:10.849Z,9.03
2019-01-04T22:20:57.470Z,8.17
2019-01-04T22:23:51.845Z,8.00
2019-01-04T22:26:39.083Z,8.07
2019-01-04T22:29:30.442Z,8.00
2019-01-04T22:32:11.872Z,9.13
2019-01-04T22:35:06.298Z,8.50
2019-01-04T22:38:09.813Z,8.07
2019-01-04T22:41:13.630Z,7.90
2019-01-04T22:44:07.823Z,7.43
2019-01-04T22:46:54.929Z,7.37
2019-01-04T22:49:42.098Z,7.67
2019-01-04T22:52:39.495Z,7.80
2019-01-04T22:55:26.739Z,7.97
2019-01-04T22:58:11.414Z,7.30
2019-01-04T23:00:57.475Z,7.77
2019-01-04T23:03:48.868Z,6.93
2019-01-04T23:06:40.445Z,7.73
2019-01-04T23:09:43.862Z,7.83
2019-01-04T23:12:30.887Z,7.63
2019-01-04T23:15:25.210Z,7.57
2019-01-04T23:18:21.154Z,7.37
2019-01-04T23:21:08.126Z,8.07
2019-01-04T23:24:07.275Z,7.27
2019-01-04T23:26:55.075Z,7.57
2019-01-04T23:29:42.267Z,7.57
2019-01-04T23:32:29.069Z,6.97
2019-01-04T23:35:16.234Z,6.07
2019-01-04T23:38:03.216Z,6.43
2019-01-04T23:41:00.662Z,6.03
2019-01-04T23:43:47.746Z,6.00
2019-01-04T23:46:50.238Z,5.50
2019-01-04T23:49:47.472Z,5.80
2019-01-04T23:52:39.279Z,5.50
2019-01-04T23:55:30.805Z,5.20
2019-01-04T23:58:32.001Z,6.73
